createdAt,value
2017-10-19T00:00:06.362Z,0
2017-10-19T00:01:06.013Z,0
2017-10-19T00:02:06.339Z,0
2017-10-19T00:03:05.637Z,0
2017-10-19T00:04:05.637Z,0
2017-10-19T00:05:05.953Z,0
2017-10-19T00:06:06.272Z,0
2017-10-19T00:07:05.591Z,0
2017-10-19T00:08:06.579Z,0
2017-10-19T00:09:06.226Z,0
2017-10-19T00:10:06.221Z,0
2017-10-19T00:11:05.862Z,0
2017-10-19T00:12:05.853Z,0
2017-10-19T00:13:05.500Z,0
2017-10-19T00:14:06.154Z,0
2017-10-19T00:15:05.470Z,0
2017-10-19T00:16:06.128Z,0
2017-10-19T00:17:05.441Z,0
2017-10-19T00:18:05.436Z,0
2017-10-19T00:19:06.074Z,0
2017-10-19T00:20:06.425Z,0
2017-10-19T00:21:05.717Z,0
2017-10-19T00:22:05.370Z,0
2017-10-19T00:23:05.689Z,0
2017-10-19T00:24:06.005Z,0
2017-10-19T00:25:05.657Z,0
2017-10-19T00:26:05.312Z,0
2017-10-19T00:27:05.637Z,0
2017-10-19T00:28:05.613Z,0
2017-10-19T00:29:04.933Z,0
2017-10-19T00:30:05.248Z,0
2017-10-19T00:31:05.565Z,0
2017-10-19T00:32:05.219Z,0
2017-10-19T00:33:05.543Z,0
2017-10-19T00:34:05.536Z,0
2017-10-19T00:35:05.180Z,0
2017-10-19T00:36:05.493Z,0
2017-10-19T00:37:05.818Z,0
2017-10-19T00:38:05.800Z,0
2017-10-19T00:39:05.796Z,0
2017-10-19T00:40:05.105Z,0
2017-10-19T00:41:05.423Z,0
2017-10-19T00:42:05.418Z,0
2017-10-19T00:43:05.056Z,0
2017-10-19T00:44:05.046Z,0
2017-10-19T00:45:05.699Z,0
2017-10-19T00:46:05.683Z,0
2017-10-19T00:47:05.659Z,0
2017-10-19T00:48:05.316Z,0
2017-10-19T00:49:04.973Z,0
2017-10-19T00:50:05.623Z,0
2017-10-19T00:51:05.277Z,0
2017-10-19T00:52:05.258Z,0
2017-10-19T00:53:04.582Z,0
2017-10-19T00:54:04.909Z,0
2017-10-19T00:55:05.214Z,0
2017-10-19T00:56:05.202Z,0
2017-10-19T00:57:05.197Z,0
2017-10-19T00:58:05.170Z,0
2017-10-19T00:59:05.853Z,0
2017-10-19T01:00:05.161Z,0
2017-10-19T01:01:05.137Z,0
2017-10-19T01:02:05.106Z,0
2017-10-19T01:03:05.435Z,0
2017-10-19T01:04:04.756Z,0
2017-10-19T01:05:05.067Z,0
2017-10-19T01:06:05.054Z,0
2017-10-19T01:07:04.703Z,0
2017-10-19T01:08:05.019Z,0
2017-10-19T01:09:04.683Z,0
2017-10-19T01:10:04.992Z,0
2017-10-19T01:11:05.316Z,0
2017-10-19T01:12:04.630Z,0
2017-10-19T01:13:04.620Z,0
2017-10-19T01:14:05.271Z,0
2017-10-19T01:15:04.594Z,0
2017-10-19T01:16:05.441Z,0
2017-10-19T01:17:04.892Z,0
2017-10-19T01:18:04.872Z,0
2017-10-19T01:19:04.849Z,0
2017-10-19T01:20:04.510Z,0
2017-10-19T01:21:05.499Z,0
2017-10-19T01:22:05.153Z,0
2017-10-19T01:23:04.797Z,0
2017-10-19T01:24:05.116Z,0
2017-10-19T01:25:05.109Z,0
2017-10-19T01:26:04.761Z,0
2017-10-19T01:27:05.087Z,0
2017-10-19T01:28:04.722Z,0
2017-10-19T01:29:04.371Z,0
2017-10-19T01:30:05.032Z,0
2017-10-19T01:31:05.030Z,0
2017-10-19T01:32:04.665Z,0
2017-10-19T01:33:04.321Z,0
2017-10-19T01:34:04.640Z,0
2017-10-19T01:35:04.290Z,0
2017-10-19T01:36:04.268Z,0
2017-10-19T01:37:04.596Z,0
2017-10-19T01:38:04.918Z,0
2017-10-19T01:39:04.891Z,0
2017-10-19T01:40:04.893Z,0
2017-10-19T01:41:04.522Z,0
2017-10-19T01:42:04.844Z,0
2017-10-19T01:43:04.157Z,0
2017-10-19T01:44:04.149Z,0
2017-10-19T01:45:04.469Z,0
2017-10-19T01:46:04.126Z,0
2017-10-19T01:47:04.110Z,0
2017-10-19T01:48:04.756Z,0
2017-10-19T01:49:04.735Z,0
2017-10-19T01:50:04.731Z,0
2017-10-19T01:51:03.708Z,0
2017-10-19T01:52:04.037Z,0
2017-10-19T01:53:04.018Z,0
2017-10-19T01:54:04.680Z,0
2017-10-19T01:55:04.333Z,0
2017-10-19T01:56:04.309Z,0
2017-10-19T01:57:04.624Z,0
2017-10-19T01:58:03.943Z,0
2017-10-19T01:59:04.594Z,0
2017-10-19T02:00:04.244Z,0
2017-10-19T02:01:04.563Z,0
2017-10-19T02:02:04.211Z,0
2017-10-19T02:03:04.197Z,0
2017-10-19T02:04:04.186Z,0
2017-10-19T02:05:03.507Z,0
2017-10-19T02:06:04.148Z,0
2017-10-19T02:07:04.476Z,0
2017-10-19T02:08:04.459Z,0
2017-10-19T02:09:04.107Z,0
2017-10-19T02:10:03.760Z,0
2017-10-19T02:11:04.076Z,0
2017-10-19T02:12:04.398Z,0
2017-10-19T02:13:03.720Z,0
2017-10-19T02:14:04.033Z,0
2017-10-19T02:15:04.024Z,0
2017-10-19T02:16:04.008Z,0
2017-10-19T02:17:04.324Z,0
2017-10-19T02:18:03.995Z,0
2017-10-19T02:19:04.293Z,0
2017-10-19T02:20:04.280Z,0
2017-10-19T02:21:04.269Z,0
2017-10-19T02:22:04.249Z,0
2017-10-19T02:23:03.571Z,0
2017-10-19T02:24:04.231Z,0
2017-10-19T02:25:03.869Z,0
2017-10-19T02:26:03.514Z,0
2017-10-19T02:27:03.510Z,0
2017-10-19T02:28:03.827Z,0
2017-10-19T02:29:03.823Z,0
2017-10-19T02:30:03.796Z,0
2017-10-19T02:31:03.116Z,0
2017-10-19T02:32:03.759Z,0
2017-10-19T02:33:03.755Z,0
2017-10-19T02:34:03.400Z,0
2017-10-19T02:35:03.383Z,0
2017-10-19T02:36:03.709Z,0
2017-10-19T02:37:04.027Z,0
2017-10-19T02:38:03.342Z,0
2017-10-19T02:39:04.347Z,0
2017-10-19T02:40:03.977Z,0
2017-10-19T02:41:03.288Z,0
2017-10-19T02:42:03.947Z,0
2017-10-19T02:43:03.597Z,0
2017-10-19T02:44:03.267Z,0
2017-10-19T02:45:03.239Z,0
2017-10-19T02:46:04.227Z,0
2017-10-19T02:47:02.864Z,0
2017-10-19T02:48:03.520Z,0
2017-10-19T02:49:03.505Z,0
2017-10-19T02:50:03.839Z,0
2017-10-19T02:51:03.479Z,0
2017-10-19T02:52:03.462Z,0
2017-10-19T02:53:03.112Z,0
2017-10-19T02:54:03.437Z,0
2017-10-19T02:55:03.429Z,0
2017-10-19T02:56:03.083Z,0
2017-10-19T02:57:03.377Z,0
2017-10-19T02:58:03.711Z,0
2017-10-19T02:59:03.042Z,0
2017-10-19T03:00:03.335Z,0
2017-10-19T03:01:03.653Z,0
2017-10-19T03:02:03.641Z,0
2017-10-19T03:03:03.298Z,0
2017-10-19T03:04:03.616Z,0
2017-10-19T03:05:03.268Z,0
2017-10-19T03:06:02.924Z,0
2017-10-19T03:07:03.563Z,0
2017-10-19T03:08:02.877Z,0
2017-10-19T03:09:03.879Z,0
2017-10-19T03:10:03.182Z,0
2017-10-19T03:11:03.841Z,0
2017-10-19T03:12:03.151Z,0
2017-10-19T03:13:03.470Z,0
2017-10-19T03:14:03.456Z,0
2017-10-19T03:15:03.440Z,0
2017-10-19T03:16:02.633Z,0
2017-10-19T03:17:03.415Z,0
2017-10-19T03:18:03.393Z,0
2017-10-19T03:19:02.716Z,0
2017-10-19T03:20:03.373Z,0
2017-10-19T03:21:02.697Z,0
2017-10-19T03:22:03.342Z,0
2017-10-19T03:23:03.337Z,0
2017-10-19T03:24:02.972Z,0
2017-10-19T03:25:02.622Z,0
2017-10-19T03:26:02.952Z,0
2017-10-19T03:27:03.264Z,0
2017-10-19T03:28:02.577Z,0
2017-10-19T03:29:03.222Z,0
2017-10-19T03:30:02.888Z,0
2017-10-19T03:31:03.217Z,0
2017-10-19T03:32:03.538Z,0
2017-10-19T03:33:02.830Z,0
2017-10-19T03:34:03.482Z,0
2017-10-19T03:35:03.135Z,0
2017-10-19T03:36:02.785Z,0
2017-10-19T03:37:02.449Z,0
2017-10-19T03:38:03.424Z,0
2017-10-19T03:39:03.075Z,0
2017-10-19T03:40:03.065Z,0
2017-10-19T03:41:03.388Z,0
2017-10-19T03:42:02.690Z,0
2017-10-19T03:43:02.687Z,0
2017-10-19T03:44:03.016Z,0
2017-10-19T03:45:02.653Z,0
2017-10-19T03:46:02.642Z,0
2017-10-19T03:47:02.717Z,0
2017-10-19T03:48:02.618Z,0
2017-10-19T03:49:02.592Z,0
2017-10-19T03:50:02.905Z,0
2017-10-19T03:51:02.217Z,0
2017-10-19T03:52:03.262Z,0
2017-10-19T03:53:02.189Z,0
2017-10-19T03:54:02.842Z,0
2017-10-19T03:55:02.502Z,0
2017-10-19T03:56:02.482Z,0
2017-10-19T03:57:01.796Z,0
2017-10-19T03:58:02.117Z,0
2017-10-19T03:59:02.772Z,0
2017-10-19T04:00:02.765Z,0
2017-10-19T04:01:02.754Z,0
2017-10-19T04:02:02.389Z,0
2017-10-19T04:03:02.378Z,0
2017-10-19T04:04:02.722Z,0
2017-10-19T04:05:02.680Z,0
2017-10-19T04:06:01.996Z,0
2017-10-19T04:07:02.314Z,0
2017-10-19T04:08:01.966Z,0
2017-10-19T04:09:01.947Z,0
2017-10-19T04:10:02.598Z,0
2017-10-19T04:11:02.253Z,0
2017-10-19T04:12:01.572Z,0
2017-10-19T04:13:02.556Z,0
2017-10-19T04:14:01.878Z,0
2017-10-19T04:15:02.532Z,0
2017-10-19T04:16:02.837Z,0
2017-10-19T04:17:02.518Z,0
2017-10-19T04:18:02.476Z,0
2017-10-19T04:19:01.799Z,0
2017-10-19T04:20:02.441Z,0
2017-10-19T04:21:02.435Z,0
2017-10-19T04:22:01.757Z,0
2017-10-19T04:23:02.726Z,0
2017-10-19T04:24:02.721Z,0
2017-10-19T04:25:01.368Z,0
2017-10-19T04:26:02.347Z,0
2017-10-19T04:27:02.343Z,0
2017-10-19T04:28:01.662Z,0
2017-10-19T04:29:02.306Z,0
2017-10-19T04:30:01.630Z,0
2017-10-19T04:31:01.952Z,0
2017-10-19T04:32:01.935Z,0
2017-10-19T04:33:02.249Z,0
2017-10-19T04:34:01.563Z,0
2017-10-19T04:35:02.217Z,0
2017-10-19T04:36:01.866Z,0
2017-10-19T04:37:02.193Z,0
2017-10-19T04:38:01.498Z,0
2017-10-19T04:39:01.820Z,0
2017-10-19T04:40:02.141Z,0
2017-10-19T04:41:01.448Z,0
2017-10-19T04:42:01.780Z,0
2017-10-19T04:43:02.446Z,0
2017-10-19T04:44:02.084Z,0
2017-10-19T04:45:01.737Z,0
2017-10-19T04:46:02.052Z,0
2017-10-19T04:47:01.035Z,0
2017-10-19T04:48:02.020Z,0
2017-10-19T04:49:02.006Z,0
2017-10-19T04:50:00.981Z,0
2017-10-19T04:51:01.640Z,0
2017-10-19T04:52:01.953Z,0
2017-10-19T04:53:00.942Z,0
2017-10-19T04:54:01.588Z,0
2017-10-19T04:55:01.931Z,0
2017-10-19T04:56:01.899Z,0
2017-10-19T04:57:01.208Z,0
2017-10-19T04:58:01.549Z,0
2017-10-19T04:59:01.177Z,0
2017-10-19T05:00:01.495Z,0
2017-10-19T05:01:01.154Z,0
2017-10-19T05:02:00.808Z,0
2017-10-19T05:03:01.792Z,0
2017-10-19T05:04:01.436Z,0
2017-10-19T05:05:01.422Z,0
2017-10-19T05:06:01.737Z,0
2017-10-19T05:07:02.058Z,0
2017-10-19T05:08:01.733Z,0
2017-10-19T05:09:01.025Z,0
2017-10-19T05:10:01.677Z,0
2017-10-19T05:11:01.658Z,0
2017-10-19T05:12:00.652Z,0
2017-10-19T05:13:00.967Z,0
2017-10-19T05:14:01.276Z,0
2017-10-19T05:15:00.940Z,0
2017-10-19T05:16:01.117Z,0
2017-10-19T05:17:00.903Z,0
2017-10-19T05:18:00.558Z,0
2017-10-19T05:19:01.896Z,0
2017-10-19T05:20:01.197Z,0
2017-10-19T05:21:00.838Z,0
2017-10-19T05:22:01.498Z,0
2017-10-19T05:23:00.478Z,0
2017-10-19T05:24:01.135Z,0
2017-10-19T05:25:01.450Z,0
2017-10-19T05:26:01.763Z,0
2017-10-19T05:27:01.436Z,0
2017-10-19T05:28:01.067Z,0
2017-10-19T05:29:00.717Z,0
2017-10-19T05:30:00.707Z,0
2017-10-19T05:31:00.685Z,0
2017-10-19T05:32:01.001Z,0
2017-10-19T05:33:01.661Z,0
2017-10-19T05:34:00.989Z,0
2017-10-19T05:35:00.297Z,0
2017-10-19T05:36:00.944Z,0
2017-10-19T05:37:00.930Z,0
2017-10-19T05:38:01.591Z,0
2017-10-19T05:39:00.901Z,0
2017-10-19T05:40:00.885Z,0
2017-10-19T05:41:00.881Z,0
2017-10-19T05:42:00.854Z,0
2017-10-19T05:43:01.179Z,0
2017-10-19T05:44:01.156Z,0
2017-10-19T05:45:00.483Z,0
2017-10-19T05:46:01.133Z,0
2017-10-19T05:47:00.771Z,0
2017-10-19T05:48:01.105Z,0
2017-10-19T05:49:00.754Z,0
2017-10-19T05:50:01.403Z,0
2017-10-19T05:51:00.721Z,0
2017-10-19T05:52:00.707Z,0
2017-10-19T05:53:00.354Z,0
2017-10-19T05:54:01.345Z,0
2017-10-19T05:55:01.000Z,0
2017-10-19T05:56:01.321Z,0
2017-10-19T05:57:00.968Z,0
2017-10-19T05:58:00.616Z,0
2017-10-19T05:59:00.935Z,0
2017-10-19T06:00:00.601Z,0
2017-10-19T06:01:00.565Z,0
2017-10-19T06:02:00.222Z,0
2017-10-19T06:03:00.546Z,0
2017-10-19T06:04:00.529Z,5
2017-10-19T06:05:00.188Z,5
2017-10-19T06:06:00.824Z,5
2017-10-19T06:07:00.477Z,5
2017-10-19T06:08:00.462Z,5
2017-10-19T06:09:00.787Z,5
2017-10-19T06:10:01.130Z,5
2017-10-19T06:11:00.432Z,5
2017-10-19T06:12:00.756Z,5
2017-10-19T06:13:00.388Z,5
2017-10-19T06:14:00.373Z,5
2017-10-19T06:15:00.705Z,10
2017-10-19T06:16:00.719Z,10
2017-10-19T06:17:00.337Z,10
2017-10-19T06:18:00.992Z,10
2017-10-19T06:18:59.971Z,10
2017-10-19T06:20:00.287Z,15
2017-10-19T06:21:00.939Z,15
2017-10-19T06:21:59.922Z,15
2017-10-19T06:22:59.909Z,15
2017-10-19T06:24:00.569Z,15
2017-10-19T06:24:59.884Z,15
2017-10-19T06:25:59.873Z,15
2017-10-19T06:26:59.855Z,20
2017-10-19T06:28:00.511Z,20
2017-10-19T06:29:00.839Z,20
2017-10-19T06:30:00.160Z,20
2017-10-19T06:31:00.135Z,20
2017-10-19T06:32:00.110Z,20
2017-10-19T06:33:00.426Z,25
2017-10-19T06:34:00.091Z,25
2017-10-19T06:35:00.080Z,25
2017-10-19T06:36:00.049Z,25
2017-10-19T06:36:59.709Z,25
2017-10-19T06:38:00.030Z,25
2017-10-19T06:39:00.340Z,25
2017-10-19T06:39:59.996Z,30
2017-10-19T06:40:59.967Z,30
2017-10-19T06:41:59.623Z,30
2017-10-19T06:43:00.277Z,30
2017-10-19T06:43:59.602Z,30
2017-10-19T06:44:59.915Z,30
2017-10-19T06:46:00.235Z,35
2017-10-19T06:46:59.548Z,35
2017-10-19T06:47:59.534Z,35
2017-10-19T06:48:59.519Z,35
2017-10-19T06:49:59.846Z,35
2017-10-19T06:50:59.494Z,35
2017-10-19T06:52:00.145Z,35
2017-10-19T06:52:59.813Z,40
2017-10-19T06:54:00.118Z,40
2017-10-19T06:54:59.767Z,40
2017-10-19T06:56:00.082Z,40
2017-10-19T06:56:59.739Z,40
2017-10-19T06:57:59.720Z,40
2017-10-19T06:58:59.714Z,40
2017-10-19T06:59:59.791Z,45
2017-10-19T07:00:59.345Z,45
2017-10-19T07:02:00.353Z,45
2017-10-19T07:02:58.981Z,45
2017-10-19T07:03:59.624Z,45
2017-10-19T07:04:59.945Z,45
2017-10-19T07:05:59.596Z,50
2017-10-19T07:06:59.941Z,50
2017-10-19T07:08:00.243Z,50
2017-10-19T07:09:00.219Z,50
2017-10-19T07:09:59.550Z,50
2017-10-19T07:10:59.566Z,50
2017-10-19T07:11:59.184Z,50
2017-10-19T07:12:59.171Z,55
2017-10-19T07:13:59.826Z,55
2017-10-19T07:14:59.137Z,55
2017-10-19T07:15:59.656Z,55
2017-10-19T07:16:59.442Z,55
2017-10-19T07:17:59.786Z,55
2017-10-19T07:18:59.418Z,60
2017-10-19T07:19:59.738Z,60
2017-10-19T07:20:59.049Z,60
2017-10-19T07:21:59.369Z,60
2017-10-19T07:22:59.689Z,60
2017-10-19T07:23:59.680Z,60
2017-10-19T07:24:59.328Z,65
2017-10-19T07:25:59.649Z,65
2017-10-19T07:26:59.970Z,65
2017-10-19T07:27:58.951Z,65
2017-10-19T07:28:59.606Z,65
2017-10-19T07:29:59.258Z,65
2017-10-19T07:30:59.575Z,70
2017-10-19T07:31:59.222Z,70
2017-10-19T07:32:59.874Z,70
2017-10-19T07:33:59.528Z,70
2017-10-19T07:34:59.510Z,70
2017-10-19T07:35:58.829Z,70
2017-10-19T07:36:59.149Z,70
2017-10-19T07:37:59.467Z,70
2017-10-19T07:38:59.802Z,70
2017-10-19T07:39:59.445Z,70
2017-10-19T07:40:59.090Z,70
2017-10-19T07:41:59.754Z,75
2017-10-19T07:42:59.068Z,75
2017-10-19T07:43:59.055Z,75
2017-10-19T07:44:59.034Z,75
2017-10-19T07:45:59.026Z,75
2017-10-19T07:46:58.665Z,75
2017-10-19T07:47:58.998Z,75
2017-10-19T07:48:58.989Z,80
2017-10-19T07:49:58.965Z,80
2017-10-19T07:50:59.286Z,80
2017-10-19T07:51:58.608Z,80
2017-10-19T07:52:58.260Z,80
2017-10-19T07:53:59.256Z,80
2017-10-19T07:54:58.563Z,80
2017-10-19T07:55:58.881Z,80
2017-10-19T07:56:59.204Z,85
2017-10-19T07:57:59.185Z,85
2017-10-19T07:58:59.175Z,95
2017-10-19T07:59:58.831Z,95
2017-10-19T08:00:58.816Z,90
2017-10-19T08:01:59.131Z,90
2017-10-19T08:02:58.790Z,90
2017-10-19T08:03:58.447Z,105
2017-10-19T08:04:59.092Z,145
2017-10-19T08:05:59.085Z,125
2017-10-19T08:06:59.061Z,95
2017-10-19T08:07:58.389Z,90
2017-10-19T08:08:59.041Z,90
2017-10-19T08:09:59.353Z,95
2017-10-19T08:10:59.015Z,105
2017-10-19T08:11:57.996Z,110
2017-10-19T08:12:58.982Z,110
2017-10-19T08:13:58.299Z,115
2017-10-19T08:14:57.956Z,95
2017-10-19T08:15:58.609Z,95
2017-10-19T08:16:58.594Z,95
2017-10-19T08:17:58.916Z,95
2017-10-19T08:18:59.248Z,95
2017-10-19T08:19:58.226Z,95
2017-10-19T08:20:58.357Z,95
2017-10-19T08:21:58.865Z,95
2017-10-19T08:22:58.522Z,95
2017-10-19T08:23:58.518Z,95
2017-10-19T08:24:58.190Z,90
2017-10-19T08:25:59.143Z,90
2017-10-19T08:26:58.797Z,90
2017-10-19T08:27:58.583Z,95
2017-10-19T08:28:58.790Z,90
2017-10-19T08:29:58.097Z,90
2017-10-19T08:30:58.472Z,95
2017-10-19T08:31:58.731Z,95
2017-10-19T08:32:58.727Z,95
2017-10-19T08:33:58.370Z,95
2017-10-19T08:34:58.710Z,95
2017-10-19T08:35:58.338Z,95
2017-10-19T08:36:58.329Z,95
2017-10-19T08:37:58.325Z,100
2017-10-19T08:38:58.647Z,110
2017-10-19T08:39:57.971Z,100
2017-10-19T08:40:58.637Z,100
2017-10-19T08:41:57.972Z,105
2017-10-19T08:42:58.608Z,130
2017-10-19T08:43:58.244Z,125
2017-10-19T08:44:58.902Z,115
2017-10-19T08:45:57.885Z,115
2017-10-19T08:46:58.219Z,105
2017-10-19T08:47:58.197Z,120
2017-10-19T08:48:58.181Z,120
2017-10-19T08:49:58.512Z,105
2017-10-19T08:50:57.830Z,105
2017-10-19T08:51:58.141Z,105
2017-10-19T08:52:58.497Z,105
2017-10-19T08:53:58.123Z,110
2017-10-19T08:54:58.446Z,120
2017-10-19T08:55:58.099Z,115
2017-10-19T08:56:58.757Z,105
2017-10-19T08:57:58.117Z,105
2017-10-19T08:58:58.081Z,105
2017-10-19T08:59:57.732Z,105
2017-10-19T09:00:57.728Z,105
2017-10-19T09:01:58.376Z,110
2017-10-19T09:02:57.686Z,120
2017-10-19T09:03:57.677Z,125
2017-10-19T09:04:58.004Z,110
2017-10-19T09:05:57.987Z,110
2017-10-19T09:06:57.972Z,110
2017-10-19T09:07:58.299Z,110
2017-10-19T09:08:57.617Z,110
2017-10-19T09:09:58.640Z,110
2017-10-19T09:10:58.253Z,110
2017-10-19T09:11:57.907Z,110
2017-10-19T09:12:57.915Z,110
2017-10-19T09:13:58.213Z,115
2017-10-19T09:14:57.203Z,115
2017-10-19T09:15:58.395Z,115
2017-10-19T09:16:58.184Z,120
2017-10-19T09:17:57.501Z,120
2017-10-19T09:18:57.493Z,125
2017-10-19T09:19:57.835Z,120
2017-10-19T09:20:58.145Z,140
2017-10-19T09:21:58.465Z,170
2017-10-19T09:22:57.444Z,140
2017-10-19T09:23:58.099Z,150
2017-10-19T09:24:57.438Z,135
2017-10-19T09:25:57.412Z,155
2017-10-19T09:26:58.067Z,205
2017-10-19T09:27:57.721Z,190
2017-10-19T09:28:57.720Z,130
2017-10-19T09:29:57.370Z,130
2017-10-19T09:30:58.037Z,125
2017-10-19T09:31:57.677Z,135
2017-10-19T09:32:57.671Z,125
2017-10-19T09:33:57.990Z,120
2017-10-19T09:34:58.309Z,120
2017-10-19T09:35:57.645Z,120
2017-10-19T09:36:57.630Z,120
2017-10-19T09:37:56.946Z,120
2017-10-19T09:38:57.945Z,120
2017-10-19T09:39:57.596Z,125
2017-10-19T09:40:57.578Z,125
2017-10-19T09:41:57.575Z,125
2017-10-19T09:42:57.925Z,125
2017-10-19T09:43:57.546Z,130
2017-10-19T09:44:57.543Z,130
2017-10-19T09:45:57.524Z,130
2017-10-19T09:46:58.196Z,140
2017-10-19T09:47:57.515Z,160
2017-10-19T09:48:57.495Z,160
2017-10-19T09:49:57.491Z,155
2017-10-19T09:50:57.472Z,150
2017-10-19T09:51:57.145Z,135
2017-10-19T09:52:57.804Z,130
2017-10-19T09:53:57.443Z,130
2017-10-19T09:54:57.444Z,130
2017-10-19T09:55:57.756Z,130
2017-10-19T09:56:57.418Z,130
2017-10-19T09:57:57.400Z,130
2017-10-19T09:58:58.061Z,130
2017-10-19T09:59:57.048Z,130
2017-10-19T10:00:57.705Z,130
2017-10-19T10:01:57.361Z,135
2017-10-19T10:02:57.019Z,135
2017-10-19T10:03:58.018Z,140
2017-10-19T10:04:57.328Z,150
2017-10-19T10:05:57.334Z,180
2017-10-19T10:06:57.317Z,295
2017-10-19T10:07:57.983Z,360
2017-10-19T10:08:57.300Z,285
2017-10-19T10:09:57.622Z,230
2017-10-19T10:10:57.948Z,195
2017-10-19T10:11:57.589Z,235
2017-10-19T10:12:57.249Z,235
2017-10-19T10:13:56.910Z,205
2017-10-19T10:14:57.907Z,225
2017-10-19T10:15:57.225Z,195
2017-10-19T10:16:58.071Z,235
2017-10-19T10:17:56.861Z,205
2017-10-19T10:18:57.188Z,175
2017-10-19T10:19:57.518Z,185
2017-10-19T10:20:57.508Z,180
2017-10-19T10:21:56.833Z,190
2017-10-19T10:22:57.489Z,200
2017-10-19T10:23:57.806Z,250
2017-10-19T10:24:57.147Z,235
2017-10-19T10:25:56.798Z,180
2017-10-19T10:26:57.458Z,185
2017-10-19T10:27:57.463Z,200
2017-10-19T10:28:56.435Z,205
2017-10-19T10:29:57.430Z,250
2017-10-19T10:30:57.082Z,230
2017-10-19T10:31:57.066Z,250
2017-10-19T10:32:57.735Z,265
2017-10-19T10:33:56.726Z,235
2017-10-19T10:34:57.044Z,230
2017-10-19T10:35:57.037Z,210
2017-10-19T10:36:57.365Z,215
2017-10-19T10:37:57.355Z,205
2017-10-19T10:38:57.015Z,260
2017-10-19T10:39:57.018Z,290
2017-10-19T10:40:57.323Z,270
2017-10-19T10:41:56.986Z,270
2017-10-19T10:42:57.054Z,240
2017-10-19T10:43:56.636Z,205
2017-10-19T10:44:56.963Z,205
2017-10-19T10:45:57.289Z,190
2017-10-19T10:46:57.287Z,200
2017-10-19T10:47:57.611Z,215
2017-10-19T10:48:57.609Z,220
2017-10-19T10:49:57.260Z,210
2017-10-19T10:50:57.587Z,200
2017-10-19T10:51:56.239Z,215
2017-10-19T10:52:56.559Z,240
2017-10-19T10:53:56.906Z,270
2017-10-19T10:54:57.387Z,290
2017-10-19T10:55:57.551Z,285
2017-10-19T10:56:56.536Z,315
2017-10-19T10:57:57.200Z,250
2017-10-19T10:58:56.849Z,370
2017-10-19T10:59:57.190Z,390
2017-10-19T11:00:56.839Z,285
2017-10-19T11:01:56.836Z,250
2017-10-19T11:02:56.510Z,255
2017-10-19T11:03:56.825Z,295
2017-10-19T11:04:56.814Z,315
2017-10-19T11:05:56.848Z,275
2017-10-19T11:06:56.153Z,245
2017-10-19T11:07:56.472Z,245
2017-10-19T11:08:56.790Z,255
2017-10-19T11:09:56.776Z,255
2017-10-19T11:10:56.435Z,245
2017-10-19T11:11:56.759Z,245
2017-10-19T11:12:57.116Z,240
2017-10-19T11:13:56.419Z,240
2017-10-19T11:14:56.743Z,245
2017-10-19T11:15:57.268Z,245
2017-10-19T11:16:56.740Z,240
2017-10-19T11:17:56.391Z,245
2017-10-19T11:18:56.725Z,270
2017-10-19T11:19:57.370Z,275
2017-10-19T11:20:57.405Z,260
2017-10-19T11:21:57.037Z,255
2017-10-19T11:22:57.020Z,255
2017-10-19T11:23:56.012Z,260
2017-10-19T11:24:56.343Z,270
2017-10-19T11:25:57.343Z,280
2017-10-19T11:26:56.665Z,280
2017-10-19T11:27:57.000Z,290
2017-10-19T11:28:56.324Z,295
2017-10-19T11:29:57.307Z,335
2017-10-19T11:30:57.311Z,360
2017-10-19T11:31:56.630Z,360
2017-10-19T11:32:56.995Z,390
2017-10-19T11:33:56.625Z,395
2017-10-19T11:34:57.287Z,385
2017-10-19T11:35:56.619Z,375
2017-10-19T11:36:56.609Z,410
2017-10-19T11:37:56.939Z,465
2017-10-19T11:38:56.927Z,500
2017-10-19T11:39:56.921Z,435
2017-10-19T11:40:57.259Z,440
2017-10-19T11:41:55.907Z,430
2017-10-19T11:42:55.895Z,450
2017-10-19T11:43:56.226Z,465
2017-10-19T11:44:56.558Z,440
2017-10-19T11:45:56.561Z,460
2017-10-19T11:46:56.881Z,470
2017-10-19T11:47:56.545Z,440
2017-10-19T11:48:56.553Z,450
2017-10-19T11:49:56.197Z,475
2017-10-19T11:50:56.548Z,530
2017-10-19T11:51:56.535Z,535
2017-10-19T11:52:56.872Z,525
2017-10-19T11:53:56.187Z,580
2017-10-19T11:54:56.526Z,625
2017-10-19T11:55:56.507Z,670
2017-10-19T11:56:56.837Z,675
2017-10-19T11:57:56.494Z,690
2017-10-19T11:58:56.831Z,765
2017-10-19T11:59:56.498Z,765
2017-10-19T12:00:56.480Z,720
2017-10-19T12:01:56.821Z,690
2017-10-19T12:02:56.480Z,710
2017-10-19T12:03:57.137Z,685
2017-10-19T12:04:56.829Z,690
2017-10-19T12:05:56.471Z,675
2017-10-19T12:06:56.468Z,705
2017-10-19T12:07:56.805Z,690
2017-10-19T12:08:56.467Z,725
2017-10-19T12:09:56.162Z,780
2017-10-19T12:10:56.462Z,830
2017-10-19T12:11:56.120Z,880
2017-10-19T12:12:56.451Z,825
2017-10-19T12:13:56.795Z,815
2017-10-19T12:14:56.777Z,800
2017-10-19T12:15:56.788Z,840
2017-10-19T12:16:57.140Z,915
2017-10-19T12:17:56.114Z,940
2017-10-19T12:18:56.117Z,960
2017-10-19T12:19:56.783Z,895
2017-10-19T12:20:56.114Z,935
2017-10-19T12:21:56.442Z,935
2017-10-19T12:22:56.459Z,875
2017-10-19T12:23:56.443Z,885
2017-10-19T12:24:56.775Z,875
2017-10-19T12:25:56.121Z,955
2017-10-19T12:26:56.453Z,1055
2017-10-19T12:27:56.447Z,955
2017-10-19T12:28:56.464Z,860
2017-10-19T12:29:56.449Z,825
2017-10-19T12:30:56.122Z,825
2017-10-19T12:31:56.460Z,830
2017-10-19T12:32:56.802Z,835
2017-10-19T12:33:56.801Z,850
2017-10-19T12:34:55.794Z,855
2017-10-19T12:35:56.461Z,870
2017-10-19T12:36:56.132Z,855
2017-10-19T12:37:57.152Z,820
2017-10-19T12:38:56.518Z,770
2017-10-19T12:39:56.463Z,780
2017-10-19T12:40:56.474Z,780
2017-10-19T12:41:56.135Z,790
2017-10-19T12:42:56.487Z,790
2017-10-19T12:43:56.816Z,795
2017-10-19T12:44:56.481Z,815
2017-10-19T12:45:56.830Z,835
2017-10-19T12:46:56.483Z,815
2017-10-19T12:47:56.505Z,815
2017-10-19T12:48:56.834Z,805
2017-10-19T12:49:56.818Z,800
2017-10-19T12:50:55.830Z,780
2017-10-19T12:51:56.163Z,805
2017-10-19T12:52:56.826Z,800
2017-10-19T12:53:56.497Z,780
2017-10-19T12:54:56.164Z,760
2017-10-19T12:55:56.509Z,740
2017-10-19T12:56:56.855Z,720
2017-10-19T12:57:56.503Z,715
2017-10-19T12:58:56.839Z,650
2017-10-19T12:59:56.519Z,680
2017-10-19T13:00:56.507Z,730
2017-10-19T13:01:56.175Z,730
2017-10-19T13:02:56.186Z,750
2017-10-19T13:03:56.182Z,715
2017-10-19T13:04:56.511Z,650
2017-10-19T13:05:55.853Z,620
2017-10-19T13:06:56.183Z,560
2017-10-19T13:07:56.520Z,605
2017-10-19T13:08:56.520Z,645
2017-10-19T13:09:55.857Z,610
2017-10-19T13:10:56.544Z,590
2017-10-19T13:11:56.539Z,585
2017-10-19T13:12:56.202Z,610
2017-10-19T13:13:56.536Z,620
2017-10-19T13:14:56.528Z,630
2017-10-19T13:15:57.408Z,620
2017-10-19T13:16:56.873Z,605
2017-10-19T13:17:56.876Z,585
2017-10-19T13:18:56.546Z,560
2017-10-19T13:19:56.880Z,545
2017-10-19T13:20:57.234Z,530
2017-10-19T13:21:56.557Z,470
2017-10-19T13:22:56.542Z,455
2017-10-19T13:23:56.215Z,585
2017-10-19T13:24:56.228Z,635
2017-10-19T13:25:56.891Z,675
2017-10-19T13:26:56.553Z,705
2017-10-19T13:27:56.893Z,730
2017-10-19T13:28:57.220Z,735
2017-10-19T13:29:56.557Z,725
2017-10-19T13:30:56.230Z,700
2017-10-19T13:31:56.568Z,670
2017-10-19T13:32:56.570Z,665
2017-10-19T13:33:57.236Z,650
2017-10-19T13:34:56.569Z,630
2017-10-19T13:35:56.898Z,655
2017-10-19T13:36:57.237Z,650
2017-10-19T13:37:56.925Z,620
2017-10-19T13:38:56.910Z,575
2017-10-19T13:39:56.586Z,555
2017-10-19T13:40:56.585Z,540
2017-10-19T13:41:56.578Z,570
2017-10-19T13:42:56.582Z,570
2017-10-19T13:43:56.583Z,575
2017-10-19T13:44:56.244Z,565
2017-10-19T13:45:56.919Z,540
2017-10-19T13:46:56.916Z,515
2017-10-19T13:47:56.589Z,450
2017-10-19T13:48:56.596Z,435
2017-10-19T13:49:56.938Z,430
2017-10-19T13:50:56.928Z,440
2017-10-19T13:51:56.604Z,490
2017-10-19T13:52:56.596Z,470
2017-10-19T13:53:56.605Z,400
2017-10-19T13:54:56.265Z,395
2017-10-19T13:55:56.610Z,385
2017-10-19T13:56:56.598Z,395
2017-10-19T13:57:56.941Z,375
2017-10-19T13:58:56.269Z,415
2017-10-19T13:59:56.951Z,390
2017-10-19T14:00:56.938Z,355
2017-10-19T14:01:56.275Z,345
2017-10-19T14:02:56.611Z,330
2017-10-19T14:03:56.957Z,325
2017-10-19T14:04:56.940Z,325
2017-10-19T14:05:56.616Z,315
2017-10-19T14:06:56.270Z,310
2017-10-19T14:07:57.297Z,340
2017-10-19T14:08:56.605Z,350
2017-10-19T14:09:56.280Z,395
2017-10-19T14:10:56.642Z,415
2017-10-19T14:11:57.279Z,395
2017-10-19T14:12:56.602Z,375
2017-10-19T14:13:56.266Z,365
2017-10-19T14:14:56.606Z,370
2017-10-19T14:15:57.267Z,410